Time;durP1;ratioP1;P1;durP2;ratioP2;P2;SDS_P1;SDS_P2;PMS_P1;PMS_P2;Temp;Humidity;BMP_temperature;BMP_pressure;BME280_temperature;BME280_humidity;BME280_pressure;Samples;Min_cycle;Max_cycle;Signal;HPM_P1;HPM_P2
2021/11/30 00:01:28;;;;;;;13.23;7.57;;;2.40;99.90;;;;;;4128001;28;20830;-60
2021/11/30 00:03:29;;;;;;;15.97;8.77;;;2.40;99.90;;;;;;4126046;28;20256;-64
2021/11/30 00:05:31;;;;;;;17.53;9.17;;;2.40;99.90;;;;;;4127578;28;20268;-61
2021/11/30 00:07:32;;;;;;;13.70;7.47;;;2.40;99.90;;;;;;4131060;28;20322;-61
2021/11/30 00:11:35;;;;;;;12.77;7.90;;;2.40;99.90;;;;;;4143593;28;20334;-63
2021/11/30 00:13:38;;;;;;;10.97;6.40;;;2.40;99.90;;;;;;4142984;28;20263;-60
2021/11/30 00:15:40;;;;;;;10.07;6.70;;;2.40;99.90;;;;;;4136345;28;20303;-61
2021/11/30 00:17:41;;;;;;;11.07;6.47;;;2.40;99.90;;;;;;4139812;28;20819;-61
2021/11/30 00:19:43;;;;;;;9.67;6.03;;;2.40;99.90;;;;;;4128130;28;20326;-66
2021/11/30 00:21:44;;;;;;;10.70;7.10;;;2.30;99.90;;;;;;4126602;28;20768;-63
2021/11/30 00:23:45;;;;;;;11.10;5.97;;;2.30;99.90;;;;;;4128687;28;20288;-61
2021/11/30 00:25:47;;;;;;;7.83;5.67;;;2.30;99.90;;;;;;4141011;28;20333;-63
2021/11/30 00:27:48;;;;;;;14.57;7.37;;;2.30;99.90;;;;;;4127884;28;20354;-61
2021/11/30 00:29:49;;;;;;;10.50;6.40;;;2.30;99.90;;;;;;4126726;28;20275;-61
2021/11/30 00:31:51;;;;;;;8.10;5.70;;;2.30;99.90;;;;;;4127089;28;20346;-66
2021/11/30 00:33:52;;;;;;;9.80;6.30;;;2.30;99.90;;;;;;4126653;28;20268;-71
2021/11/30 00:35:53;;;;;;;8.67;5.47;;;2.30;99.90;;;;;;4126914;28;20331;-61
2021/11/30 00:37:56;;;;;;;10.00;6.30;;;2.30;99.90;;;;;;4127017;28;20315;-60
2021/11/30 00:39:57;;;;;;;8.27;5.37;;;2.30;99.90;;;;;;4133591;28;20330;-61
2021/11/30 00:42:00;;;;;;;8.10;5.23;;;2.40;99.90;;;;;;4142895;28;20283;-62
2021/11/30 00:44:02;;;;;;;9.37;5.63;;;2.40;99.90;;;;;;4142439;28;20271;-60
2021/11/30 00:46:17;;;;;;;8.17;5.20;;;2.40;99.90;;;;;;4143721;28;20302;-61
2021/11/30 00:48:22;;;;;;;8.00;5.60;;;2.40;99.90;;;;;;4141493;28;20361;-61
2021/11/30 00:50:25;;;;;;;10.67;6.63;;;2.40;99.90;;;;;;4143543;28;20301;-62
2021/11/30 00:52:27;;;;;;;10.70;6.50;;;2.40;99.90;;;;;;4142126;28;20314;-61
2021/11/30 00:54:29;;;;;;;10.80;6.63;;;2.30;99.90;;;;;;4143374;28;20264;-61
2021/11/30 00:56:31;;;;;;;9.87;5.73;;;2.40;99.90;;;;;;4135718;28;20303;-61
2021/11/30 00:58:33;;;;;;;20.17;9.80;;;2.40;99.90;;;;;;4127134;28;20268;-69
2021/11/30 01:00:35;;;;;;;16.63;8.67;;;2.40;99.90;;;;;;4125787;28;20304;-61
2021/11/30 01:02:37;;;;;;;10.23;5.77;;;2.40;99.90;;;;;;4126197;28;20338;-62
2021/11/30 01:04:39;;;;;;;7.63;5.17;;;2.40;99.90;;;;;;4125816;28;20268;-60
2021/11/30 01:06:41;;;;;;;10.60;5.83;;;2.30;99.90;;;;;;4126841;28;20276;-68
2021/11/30 01:08:42;;;;;;;8.57;5.73;;;2.40;99.90;;;;;;4125837;28;20272;-61
2021/11/30 01:10:43;;;;;;;9.73;6.27;;;2.30;99.90;;;;;;4126738;28;20330;-62
2021/11/30 01:12:44;;;;;;;9.87;6.37;;;2.30;99.90;;;;;;4125519;28;20256;-61
2021/11/30 01:14:46;;;;;;;15.97;7.67;;;2.30;99.90;;;;;;4126476;28;20335;-59
2021/11/30 01:16:48;;;;;;;9.73;6.60;;;2.30;99.90;;;;;;4126126;28;20829;-61
2021/11/30 01:18:49;;;;;;;10.90;6.50;;;2.30;99.90;;;;;;4126225;28;20667;-61
2021/11/30 01:20:52;;;;;;;13.47;7.40;;;2.30;99.90;;;;;;4126359;28;20272;-61
2021/11/30 01:22:53;;;;;;;13.13;7.40;;;2.30;99.90;;;;;;4132109;28;20318;-67
2021/11/30 01:24:54;;;;;;;13.20;7.13;;;2.30;99.90;;;;;;4143102;28;20275;-61
2021/11/30 01:26:55;;;;;;;13.77;7.30;;;2.40;99.90;;;;;;4141621;28;20275;-61
2021/11/30 01:28:57;;;;;;;14.43;7.20;;;2.40;99.90;;;;;;4137466;28;20334;-62
2021/11/30 01:30:58;;;;;;;14.77;8.10;;;2.40;99.90;;;;;;4125260;28;20314;-61
2021/11/30 01:33:00;;;;;;;11.33;6.80;;;2.40;99.90;;;;;;4126385;28;20264;-62
2021/11/30 01:35:01;;;;;;;13.63;7.30;;;2.40;99.90;;;;;;4124971;28;20265;-61
2021/11/30 01:37:02;;;;;;;17.53;7.53;;;2.30;99.90;;;;;;4126480;28;20822;-61
2021/11/30 01:39:05;;;;;;;14.57;7.27;;;2.30;99.90;;;;;;4125606;28;21184;-61
2021/11/30 01:41:07;;;;;;;16.23;8.30;;;2.30;99.90;;;;;;4126128;28;20292;-62
2021/11/30 01:43:15;;;;;;;12.63;7.20;;;2.30;99.90;;;;;;4125428;28;20264;-62
2021/11/30 01:45:30;;;;;;;12.97;7.13;;;2.30;99.90;;;;;;4126682;28;20315;-62
2021/11/30 01:51:34;;;;;;;9.67;6.73;;;2.30;99.90;;;;;;4141494;28;20271;-61
2021/11/30 01:53:35;;;;;;;12.90;7.07;;;2.30;99.90;;;;;;4142149;28;21337;-60
2021/11/30 01:55:37;;;;;;;11.90;6.40;;;2.30;99.90;;;;;;4141919;28;20303;-62
2021/11/30 01:57:38;;;;;;;9.43;6.73;;;2.30;99.90;;;;;;4141039;28;20272;-61
2021/11/30 01:59:41;;;;;;;10.83;6.87;;;2.30;99.90;;;;;;4142159;28;20337;-63
2021/11/30 02:01:42;;;;;;;19.90;8.17;;;2.30;99.90;;;;;;4140848;28;20805;-60
2021/11/30 02:03:44;;;;;;;12.53;7.43;;;2.30;99.90;;;;;;4142387;28;20267;-65
2021/11/30 02:05:45;;;;;;;13.20;7.67;;;2.30;99.90;;;;;;4140922;28;20334;-65
2021/11/30 02:07:47;;;;;;;10.53;6.40;;;2.20;99.90;;;;;;4142560;28;20768;-60
2021/11/30 02:09:48;;;;;;;10.33;6.53;;;2.20;99.90;;;;;;4141226;28;20276;-64
2021/11/30 02:11:50;;;;;;;31.13;13.07;;;2.20;99.90;;;;;;4142367;28;20652;-61
2021/11/30 02:13:52;;;;;;;29.77;13.63;;;2.20;99.90;;;;;;4140315;28;20275;-65
2021/11/30 02:15:55;;;;;;;17.67;9.73;;;2.10;99.90;;;;;;4142896;28;20345;-67
2021/11/30 02:17:59;;;;;;;15.70;8.23;;;2.20;99.90;;;;;;4141081;28;20263;-59
2021/11/30 02:20:01;;;;;;;22.80;10.97;;;2.10;99.90;;;;;;4127300;28;20307;-62
2021/11/30 02:22:10;;;;;;;15.53;7.73;;;2.10;99.90;;;;;;4124765;28;20696;-62
2021/11/30 02:24:11;;;;;;;23.50;10.93;;;2.10;99.90;;;;;;4125532;28;20268;-64
2021/11/30 02:26:14;;;;;;;23.47;10.50;;;2.10;99.90;;;;;;4125422;28;20249;-61
2021/11/30 02:28:15;;;;;;;48.00;18.17;;;2.00;99.90;;;;;;4125052;28;20330;-62
2021/11/30 02:30:17;;;;;;;23.90;12.03;;;2.00;99.90;;;;;;4123795;28;20280;-65
2021/11/30 02:32:19;;;;;;;19.43;10.30;;;2.00;99.90;;;;;;4124567;28;20342;-61
2021/11/30 02:34:20;;;;;;;15.80;8.43;;;2.00;99.90;;;;;;4131721;28;20763;-64
2021/11/30 02:36:35;;;;;;;15.17;7.90;;;2.00;99.90;;;;;;4140737;28;20362;-62
2021/11/30 02:38:36;;;;;;;23.87;12.43;;;2.00;99.90;;;;;;4141846;28;20268;-61
2021/11/30 02:40:37;;;;;;;20.30;10.37;;;2.00;99.90;;;;;;4140145;28;20275;-61
2021/11/30 02:42:39;;;;;;;20.80;11.73;;;2.00;99.90;;;;;;4142051;28;20327;-62
2021/11/30 02:44:40;;;;;;;24.37;11.47;;;2.00;99.90;;;;;;4135239;28;20366;-69
2021/11/30 02:46:45;;;;;;;18.57;9.67;;;2.00;99.90;;;;;;4125544;28;20338;-67
2021/11/30 02:48:46;;;;;;;19.63;10.33;;;2.00;99.90;;;;;;4124394;28;20272;-61
2021/11/30 02:50:49;;;;;;;15.03;9.17;;;1.90;99.90;;;;;;4125425;28;20279;-61
2021/11/30 02:52:50;;;;;;;15.63;8.57;;;2.00;99.90;;;;;;4131190;28;20686;-61
2021/11/30 02:54:53;;;;;;;13.67;7.30;;;1.90;99.90;;;;;;4141415;28;20337;-61
2021/11/30 02:56:57;;;;;;;12.37;7.23;;;1.90;99.90;;;;;;4140374;28;20330;-61
2021/11/30 02:58:58;;;;;;;13.43;7.20;;;1.90;99.90;;;;;;4141525;28;20350;-62
2021/11/30 03:01:02;;;;;;;14.90;7.50;;;2.00;99.90;;;;;;4140375;28;20255;-62
2021/11/30 03:03:03;;;;;;;17.30;8.30;;;1.90;99.90;;;;;;4140965;28;20687;-63
2021/11/30 03:05:06;;;;;;;13.83;8.20;;;1.90;99.90;;;;;;4140229;28;20310;-61
2021/11/30 03:07:12;;;;;;;14.53;8.23;;;1.90;99.90;;;;;;4141084;28;20271;-62
2021/11/30 03:09:13;;;;;;;15.47;7.53;;;1.90;99.90;;;;;;4140725;28;20271;-67
2021/11/30 03:11:14;;;;;;;16.33;8.07;;;1.90;99.90;;;;;;4140706;28;20793;-61
2021/11/30 03:13:15;;;;;;;11.67;6.47;;;1.90;99.90;;;;;;4141033;28;20260;-62
2021/11/30 03:15:22;;;;;;;13.03;7.30;;;1.90;99.90;;;;;;4140266;28;20314;-62
2021/11/30 03:17:25;;;;;;;14.23;7.13;;;1.90;99.90;;;;;;4141353;28;20283;-65
2021/11/30 03:19:28;;;;;;;15.57;8.47;;;1.90;99.90;;;;;;4140258;28;20271;-61
2021/11/30 03:21:29;;;;;;;13.43;7.27;;;1.90;99.90;;;;;;4141483;28;20691;-63
2021/11/30 03:23:30;;;;;;;10.37;6.43;;;1.80;99.90;;;;;;4140393;28;20736;-63
2021/11/30 03:25:32;;;;;;;18.13;10.30;;;1.90;99.90;;;;;;4140806;28;20271;-62
2021/11/30 03:27:34;;;;;;;14.90;6.83;;;1.90;99.90;;;;;;4140090;28;20321;-69
2021/11/30 03:29:35;;;;;;;23.10;12.57;;;1.90;99.90;;;;;;4141223;28;20279;-62
2021/11/30 03:34:00;;;;;;;15.23;8.80;;;1.90;99.90;;;;;;4141279;28;20334;-59
2021/11/30 03:36:01;;;;;;;13.48;7.35;;;1.90;99.90;;;;;;4139320;28;20299;-62
2021/11/30 03:38:02;;;;;;;16.37;9.37;;;1.90;99.90;;;;;;4141439;28;20823;-62
2021/11/30 03:40:04;;;;;;;18.87;9.97;;;1.90;99.90;;;;;;4139645;28;20306;-62
2021/11/30 03:42:06;;;;;;;17.90;8.83;;;1.90;99.90;;;;;;4139765;28;20287;-62
2021/11/30 03:44:08;;;;;;;27.57;11.73;;;1.90;99.90;;;;;;4140079;28;20278;-63
2021/11/30 03:46:09;;;;;;;20.27;9.40;;;1.90;99.90;;;;;;4141509;28;20323;-61
2021/11/30 03:48:10;;;;;;;15.90;8.43;;;1.90;99.90;;;;;;4140602;28;20268;-61
2021/11/30 03:50:11;;;;;;;14.63;8.00;;;1.90;99.90;;;;;;4140404;28;20751;-64
2021/11/30 03:52:12;;;;;;;16.57;8.53;;;1.90;99.90;;;;;;4140949;28;20268;-62
2021/11/30 03:54:15;;;;;;;15.07;8.07;;;1.90;99.90;;;;;;4139533;28;20330;-61
2021/11/30 03:56:16;;;;;;;18.27;9.53;;;1.80;99.90;;;;;;4140849;28;20299;-61
2021/11/30 03:58:18;;;;;;;20.80;10.50;;;1.80;99.90;;;;;;4138041;28;20291;-61
2021/11/30 04:00:21;;;;;;;20.23;10.37;;;1.80;99.90;;;;;;4124816;28;20680;-62
2021/11/30 04:02:22;;;;;;;18.93;10.70;;;1.80;99.90;;;;;;4123727;28;20276;-61
2021/11/30 04:04:24;;;;;;;17.97;8.97;;;1.80;99.90;;;;;;4125034;28;20330;-61
2021/11/30 04:06:25;;;;;;;13.37;7.53;;;1.70;99.90;;;;;;4123518;28;20338;-62
2021/11/30 04:08:26;;;;;;;19.17;9.73;;;1.70;99.90;;;;;;4124913;28;20668;-62
2021/11/30 04:10:27;;;;;;;20.80;9.37;;;1.70;99.90;;;;;;4123493;28;20264;-59
2021/11/30 04:12:28;;;;;;;18.77;9.63;;;1.70;99.90;;;;;;4125166;28;20279;-62
2021/11/30 04:14:30;;;;;;;17.53;9.67;;;1.70;99.90;;;;;;4123766;28;20602;-61
2021/11/30 04:16:31;;;;;;;16.80;9.13;;;1.70;99.90;;;;;;4124448;28;20371;-62
2021/11/30 04:18:33;;;;;;;16.67;9.90;;;1.70;99.90;;;;;;4123877;28;20668;-61
2021/11/30 04:20:34;;;;;;;21.63;11.13;;;1.70;99.90;;;;;;4124018;28;20275;-62
2021/11/30 04:22:36;;;;;;;18.73;9.73;;;1.70;99.90;;;;;;4123859;28;20283;-62
2021/11/30 04:24:37;;;;;;;21.73;10.67;;;1.70;99.90;;;;;;4123507;28;20322;-63
2021/11/30 04:26:38;;;;;;;24.93;13.17;;;1.70;99.90;;;;;;4124555;28;20268;-62
2021/11/30 04:28:41;;;;;;;20.40;11.23;;;1.70;99.90;;;;;;4123541;28;20386;-62
2021/11/30 04:30:42;;;;;;;23.90;11.80;;;1.70;99.90;;;;;;4125771;28;20280;-62
2021/11/30 04:32:43;;;;;;;19.13;10.27;;;1.70;99.90;;;;;;4122037;28;20288;-61
2021/11/30 04:34:44;;;;;;;18.83;9.83;;;1.70;99.90;;;;;;4138365;28;20314;-61
2021/11/30 04:36:46;;;;;;;19.37;10.73;;;1.60;99.90;;;;;;4123171;28;20842;-66
2021/11/30 04:38:47;;;;;;;31.43;14.57;;;1.60;99.90;;;;;;4126864;28;20268;-66
2021/11/30 04:40:48;;;;;;;24.80;12.43;;;1.60;99.90;;;;;;4126673;28;20344;-59
2021/11/30 04:42:50;;;;;;;23.53;10.83;;;1.60;99.90;;;;;;4127355;28;20381;-61
2021/11/30 04:44:57;;;;;;;19.27;9.20;;;1.60;99.90;;;;;;4138917;28;20272;-61
2021/11/30 04:47:16;;;;;;;20.93;10.13;;;1.60;99.90;;;;;;4142179;28;20264;-62
2021/11/30 04:50:21;;;;;;;18.43;10.37;;;1.60;99.90;;;;;;4141648;28;20309;-61
2021/11/30 04:51:47;;;;;;;18.90;9.45;;;1.60;99.90;;;;;;4137685;28;20284;-62
2021/11/30 04:53:50;;;;;;;21.67;10.17;;;1.60;99.90;;;;;;4135880;28;20041;-62
2021/11/30 04:55:52;;;;;;;18.83;9.93;;;1.50;99.90;;;;;;4141802;28;20702;-69
2021/11/30 04:57:56;;;;;;;28.53;11.73;;;1.50;99.90;;;;;;4125715;28;20732;-61
2021/11/30 04:59:57;;;;;;;22.07;10.13;;;1.50;99.90;;;;;;4126923;28;20268;-62
2021/11/30 05:01:58;;;;;;;20.87;10.77;;;1.50;99.90;;;;;;4126036;28;20764;-64
2021/11/30 05:04:00;;;;;;;25.50;11.53;;;1.50;99.90;;;;;;4126625;28;20264;-62
2021/11/30 05:06:02;;;;;;;23.13;10.43;;;1.40;99.90;;;;;;4126256;28;20276;-61
2021/11/30 05:08:03;;;;;;;20.93;11.00;;;1.50;99.90;;;;;;4125655;28;20280;-61
2021/11/30 05:10:04;;;;;;;24.57;11.47;;;1.40;99.90;;;;;;4126416;28;20500;-60
2021/11/30 05:12:06;;;;;;;19.53;9.80;;;1.40;99.90;;;;;;4125441;28;20256;-70
2021/11/30 05:14:07;;;;;;;22.33;9.70;;;1.40;99.90;;;;;;4127114;28;20273;-63
2021/11/30 05:16:08;;;;;;;24.03;10.00;;;1.40;99.90;;;;;;4125816;28;20307;-60
2021/11/30 05:18:10;;;;;;;19.90;10.07;;;1.40;99.90;;;;;;4126421;28;20783;-62
2021/11/30 05:20:11;;;;;;;15.73;9.07;;;1.40;99.90;;;;;;4125138;28;20350;-61
2021/11/30 05:22:13;;;;;;;15.70;8.73;;;1.40;99.90;;;;;;4126586;28;20307;-61
2021/11/30 05:24:15;;;;;;;17.03;9.03;;;1.40;99.90;;;;;;4125515;28;20315;-61
2021/11/30 05:26:16;;;;;;;19.13;9.83;;;1.40;99.90;;;;;;4126885;28;20276;-60
2021/11/30 05:28:17;;;;;;;18.43;9.93;;;1.40;99.90;;;;;;4136761;28;20288;-61
2021/11/30 05:30:20;;;;;;;16.87;9.03;;;1.40;99.90;;;;;;4141968;28;20275;-60
2021/11/30 05:32:22;;;;;;;17.90;9.67;;;1.40;99.90;;;;;;4141391;28;20342;-61
2021/11/30 05:34:23;;;;;;;18.70;9.07;;;1.40;99.90;;;;;;4142160;28;20275;-61
2021/11/30 05:36:24;;;;;;;19.73;9.83;;;1.40;99.90;;;;;;4141989;28;20853;-61
2021/11/30 05:38:25;;;;;;;70.63;24.67;;;1.40;99.90;;;;;;4140944;28;20334;-61
2021/11/30 05:40:27;;;;;;;45.27;18.80;;;1.40;99.90;;;;;;4142126;28;20256;-61
2021/11/30 05:42:28;;;;;;;32.87;13.53;;;1.40;99.90;;;;;;4140590;28;20329;-61
2021/11/30 05:44:29;;;;;;;56.00;21.17;;;1.40;99.90;;;;;;4142488;28;20279;-61
2021/11/30 05:46:33;;;;;;;48.53;19.80;;;1.40;99.90;;;;;;4140862;28;20321;-64
2021/11/30 05:48:35;;;;;;;48.77;18.57;;;1.30;99.90;;;;;;4141911;28;20275;-61
2021/11/30 05:50:37;;;;;;;33.23;14.33;;;1.30;99.90;;;;;;4141225;28;20279;-67
2021/11/30 05:52:38;;;;;;;32.27;13.50;;;1.30;99.90;;;;;;4141692;28;20720;-60
2021/11/30 05:54:39;;;;;;;29.30;13.90;;;1.30;99.90;;;;;;4140137;28;20271;-61
2021/11/30 05:56:41;;;;;;;25.13;12.60;;;1.30;99.90;;;;;;4141695;28;20343;-61
2021/11/30 05:58:44;;;;;;;22.73;11.17;;;1.30;99.90;;;;;;4140818;28;20259;-62
2021/11/30 06:00:45;;;;;;;23.83;12.47;;;1.30;99.90;;;;;;4140040;28;20276;-61
2021/11/30 06:04:54;;;;;;;20.93;11.07;;;1.30;99.90;;;;;;4124822;28;20338;-61
2021/11/30 06:06:56;;;;;;;14.80;8.70;;;1.40;99.90;;;;;;4123851;28;20256;-61
2021/11/30 06:08:58;;;;;;;21.23;11.60;;;1.40;99.90;;;;;;4129510;28;20276;-61
2021/11/30 06:10:59;;;;;;;15.40;8.37;;;1.30;99.90;;;;;;4140901;28;20684;-61
2021/11/30 06:13:01;;;;;;;13.03;8.03;;;1.40;99.90;;;;;;4140845;28;20691;-62
2021/11/30 06:15:02;;;;;;;13.97;7.57;;;1.40;99.90;;;;;;4141221;28;20325;-60
2021/11/30 06:17:04;;;;;;;21.53;10.33;;;1.40;99.90;;;;;;4141259;28;20330;-62
2021/11/30 06:19:06;;;;;;;20.60;9.80;;;1.40;99.90;;;;;;4141873;28;20321;-61
2021/11/30 06:21:09;;;;;;;14.87;7.77;;;1.40;99.90;;;;;;4140048;28;20276;-62
2021/11/30 06:23:10;;;;;;;14.67;6.63;;;1.40;99.90;;;;;;4141781;28;20274;-62
2021/11/30 06:25:11;;;;;;;20.30;8.77;;;1.40;99.90;;;;;;4140457;28;20330;-65
2021/11/30 06:27:13;;;;;;;14.80;8.80;;;1.40;99.90;;;;;;4142013;28;20751;-61
2021/11/30 06:29:14;;;;;;;17.10;7.47;;;1.50;99.90;;;;;;4140291;28;20836;-60
2021/11/30 06:31:17;;;;;;;13.97;7.27;;;1.50;99.90;;;;;;4141742;28;20299;-60
2021/11/30 06:33:18;;;;;;;13.87;7.70;;;1.50;99.90;;;;;;4139675;28;20805;-61
2021/11/30 06:35:19;;;;;;;12.23;7.00;;;1.50;99.90;;;;;;4141596;28;20264;-60
2021/11/30 06:37:21;;;;;;;12.70;6.47;;;1.50;99.90;;;;;;4140362;28;20349;-57
2021/11/30 06:39:22;;;;;;;16.03;7.67;;;1.50;99.90;;;;;;4128293;28;20288;-61
2021/11/30 06:41:23;;;;;;;11.77;6.60;;;1.50;99.90;;;;;;4124354;28;20260;-60
2021/11/30 06:43:25;;;;;;;13.10;6.70;;;1.60;99.90;;;;;;4124709;28;20310;-61
2021/11/30 06:45:26;;;;;;;11.37;6.77;;;1.50;99.90;;;;;;4124580;28;20772;-62
2021/11/30 06:47:28;;;;;;;11.10;6.20;;;1.60;99.90;;;;;;4124141;28;20696;-61
2021/11/30 06:49:30;;;;;;;11.87;6.93;;;1.60;99.90;;;;;;4124368;28;20721;-60
2021/11/30 06:51:31;;;;;;;12.00;6.03;;;1.50;99.90;;;;;;4123564;28;20330;-61
2021/11/30 06:53:34;;;;;;;13.00;7.03;;;1.50;99.90;;;;;;4125031;28;20359;-59
2021/11/30 06:55:35;;;;;;;11.67;6.13;;;1.50;99.90;;;;;;4123683;28;20782;-62
2021/11/30 06:57:36;;;;;;;11.27;6.53;;;1.50;99.90;;;;;;4124559;28;20370;-61
2021/11/30 06:59:38;;;;;;;11.47;6.10;;;1.60;99.90;;;;;;4123349;28;20292;-62
2021/11/30 07:01:40;;;;;;;12.23;6.73;;;1.60;99.90;;;;;;4124164;28;20264;-62
2021/11/30 07:03:44;;;;;;;12.17;6.63;;;1.60;99.90;;;;;;4122862;28;20314;-66
2021/11/30 07:05:46;;;;;;;14.50;7.27;;;1.60;99.90;;;;;;4130200;28;20314;-61
2021/11/30 07:12:50;;;;;;;10.73;6.50;;;1.80;99.90;;;;;;4127104;28;20255;-60
2021/11/30 07:14:52;;;;;;;10.27;6.33;;;1.90;99.90;;;;;;4140562;28;20437;-61
2021/11/30 07:16:53;;;;;;;10.60;5.77;;;2.00;99.90;;;;;;4139916;28;20295;-58
2021/11/30 07:18:54;;;;;;;10.33;5.63;;;1.90;99.90;;;;;;4141804;28;20271;-59
2021/11/30 07:20:56;;;;;;;10.43;5.50;;;2.00;99.90;;;;;;4139845;28;20338;-62
2021/11/30 07:22:58;;;;;;;11.57;5.97;;;2.10;99.90;;;;;;4140017;28;20279;-65
2021/11/30 07:24:59;;;;;;;11.10;5.53;;;2.20;99.90;;;;;;4139324;28;20239;-61
2021/11/30 07:27:00;;;;;;;12.83;5.60;;;2.20;99.90;;;;;;4140758;28;20271;-60
2021/11/30 07:29:03;;;;;;;10.30;5.60;;;2.20;99.90;;;;;;4139891;28;20337;-60
2021/11/30 07:31:10;;;;;;;7.93;5.50;;;2.30;99.90;;;;;;4155044;28;20305;-64
2021/11/30 07:33:11;;;;;;;7.67;5.10;;;2.30;99.90;;;;;;4140324;28;20267;-62
2021/11/30 07:35:12;;;;;;;10.80;5.20;;;2.30;99.90;;;;;;4139401;28;20767;-63
2021/11/30 07:37:16;;;;;;;12.70;6.00;;;2.30;99.90;;;;;;4140652;28;20294;-62
2021/11/30 07:39:18;;;;;;;9.33;4.83;;;2.30;99.90;;;;;;4126183;28;20291;-62
2021/11/30 07:41:20;;;;;;;10.07;5.50;;;2.30;99.90;;;;;;4124245;28;20310;-64
2021/11/30 07:43:21;;;;;;;10.37;5.23;;;2.20;99.90;;;;;;4122927;28;20264;-63
2021/11/30 07:45:22;;;;;;;9.23;5.47;;;2.20;99.90;;;;;;4141123;28;20259;-60
2021/11/30 07:47:23;;;;;;;8.43;4.80;;;2.20;99.90;;;;;;4139299;28;20264;-59
2021/11/30 07:49:25;;;;;;;11.10;5.93;;;2.20;99.90;;;;;;4140151;28;20279;-63
2021/11/30 07:51:26;;;;;;;9.13;5.70;;;2.30;99.90;;;;;;4139459;28;20325;-63
2021/11/30 07:53:28;;;;;;;8.63;5.17;;;2.20;99.90;;;;;;4140133;28;20303;-60
2021/11/30 07:55:29;;;;;;;9.53;5.30;;;2.30;99.90;;;;;;4139460;28;20309;-63
2021/11/30 07:57:30;;;;;;;8.60;5.13;;;2.30;99.90;;;;;;4140514;28;20349;-62
2021/11/30 07:59:32;;;;;;;9.63;5.67;;;2.30;99.90;;;;;;4138842;28;20330;-61
2021/11/30 08:01:33;;;;;;;12.33;5.80;;;2.30;99.90;;;;;;4137949;28;20279;-60
2021/11/30 08:03:34;;;;;;;11.73;6.40;;;2.30;99.90;;;;;;4139306;28;20345;-61
2021/11/30 08:05:36;;;;;;;13.07;6.83;;;2.30;99.90;;;;;;4140098;28;20779;-62
2021/11/30 08:07:38;;;;;;;9.50;5.77;;;2.40;99.90;;;;;;4139884;28;21048;-62
2021/11/30 08:09:39;;;;;;;9.50;5.23;;;2.50;99.90;;;;;;4138807;28;20631;-61
2021/11/30 08:11:40;;;;;;;9.43;5.00;;;2.50;99.90;;;;;;4140701;28;20283;-62
2021/11/30 08:13:41;;;;;;;11.87;6.13;;;2.50;99.90;;;;;;4142517;28;20314;-64
2021/11/30 08:15:42;;;;;;;7.77;4.30;;;2.50;99.90;;;;;;4143512;28;20276;-60
2021/11/30 08:17:44;;;;;;;8.83;3.90;;;2.50;99.90;;;;;;4137183;28;20296;-62
2021/11/30 08:19:46;;;;;;;10.53;5.23;;;2.50;99.90;;;;;;4141605;28;20264;-60
2021/11/30 08:21:47;;;;;;;7.27;4.13;;;2.60;99.90;;;;;;4142457;28;20264;-64
2021/11/30 08:23:48;;;;;;;10.40;4.93;;;2.60;99.90;;;;;;4129372;28;20268;-61
2021/11/30 08:25:50;;;;;;;6.63;4.07;;;2.60;99.90;;;;;;4126452;28;20272;-66
2021/11/30 08:27:52;;;;;;;6.90;4.50;;;2.70;99.90;;;;;;4126594;28;20268;-60
2021/11/30 08:29:53;;;;;;;12.03;4.67;;;2.70;99.90;;;;;;4130917;28;20922;-60
2021/11/30 08:31:54;;;;;;;8.43;4.63;;;2.60;99.90;;;;;;4138395;28;20330;-60
2021/11/30 08:33:55;;;;;;;9.60;5.33;;;2.70;99.90;;;;;;4141438;28;20279;-62
2021/11/30 08:35:56;;;;;;;7.20;3.90;;;2.60;99.90;;;;;;4142670;28;20334;-57
2021/11/30 08:37:57;;;;;;;8.93;4.13;;;2.60;99.90;;;;;;4143122;28;20295;-60
2021/11/30 08:39:59;;;;;;;6.87;3.63;;;2.70;99.90;;;;;;4140832;28;20628;-61
2021/11/30 08:42:04;;;;;;;14.27;4.60;;;2.70;99.90;;;;;;4140308;28;20290;-64
2021/11/30 08:44:05;;;;;;;9.07;4.63;;;2.70;99.90;;;;;;4140264;28;20997;-60
2021/11/30 08:46:06;;;;;;;10.00;5.07;;;2.80;99.90;;;;;;4127116;28;20319;-68
2021/11/30 08:48:07;;;;;;;10.97;4.90;;;3.00;99.90;;;;;;4125413;28;20323;-62
2021/11/30 08:50:17;;;;;;;7.77;4.10;;;3.10;99.90;;;;;;4126962;28;20299;-61
2021/11/30 08:52:24;;;;;;;7.83;5.13;;;3.10;99.90;;;;;;4125395;28;20279;-62
2021/11/30 08:54:28;;;;;;;14.83;6.00;;;3.00;99.90;;;;;;4126387;28;20279;-65
2021/11/30 08:56:29;;;;;;;8.00;5.00;;;3.00;99.90;;;;;;4125214;28;20907;-59
2021/11/30 08:58:31;;;;;;;6.60;4.07;;;3.00;99.90;;;;;;4125850;28;20366;-62
2021/11/30 09:00:33;;;;;;;9.10;4.60;;;2.90;99.90;;;;;;4124829;28;20752;-62
2021/11/30 09:02:35;;;;;;;8.37;4.50;;;2.90;99.90;;;;;;4126470;28;20724;-62
2021/11/30 09:04:37;;;;;;;9.43;4.63;;;2.80;99.90;;;;;;4123530;28;20292;-61
2021/11/30 09:06:38;;;;;;;9.90;4.63;;;2.90;99.90;;;;;;4129156;28;20775;-61
2021/11/30 09:08:40;;;;;;;11.17;6.20;;;2.90;99.90;;;;;;4131502;28;20260;-62
2021/11/30 09:10:41;;;;;;;7.30;4.50;;;3.00;99.90;;;;;;4141521;28;20637;-63
2021/11/30 09:12:42;;;;;;;8.63;4.90;;;3.10;99.90;;;;;;4141479;28;20334;-63
2021/11/30 09:14:45;;;;;;;8.00;4.67;;;3.20;99.90;;;;;;4139911;28;20283;-64
2021/11/30 09:16:47;;;;;;;8.90;4.97;;;3.30;99.90;;;;;;4142583;28;20700;-58
2021/11/30 09:18:48;;;;;;;8.83;4.60;;;3.40;99.90;;;;;;4140444;28;20695;-60
2021/11/30 09:20:49;;;;;;;8.10;4.70;;;3.50;99.90;;;;;;4141675;28;20263;-59
2021/11/30 09:22:51;;;;;;;7.90;4.40;;;3.60;99.90;;;;;;4140764;28;20782;-66
2021/11/30 09:24:57;;;;;;;14.37;5.60;;;3.70;99.90;;;;;;4141989;28;20267;-60
2021/11/30 09:26:58;;;;;;;8.73;4.60;;;3.70;99.90;;;;;;4140625;28;20322;-61
2021/11/30 09:28:59;;;;;;;10.70;6.17;;;3.80;99.90;;;;;;4138458;28;20318;-62
2021/11/30 09:31:01;;;;;;;8.60;4.73;;;4.10;99.90;;;;;;4137182;28;20341;-63
2021/11/30 09:33:02;;;;;;;8.67;4.70;;;4.20;99.90;;;;;;4133180;28;20284;-61
2021/11/30 09:35:05;;;;;;;9.23;4.37;;;4.30;99.90;;;;;;4132420;28;20365;-62
2021/11/30 09:37:08;;;;;;;6.83;4.07;;;4.30;99.90;;;;;;4136196;28;20338;-65
2021/11/30 09:39:09;;;;;;;7.10;3.87;;;4.40;99.90;;;;;;4124991;28;20680;-61
2021/11/30 09:41:12;;;;;;;9.53;4.03;;;4.40;99.90;;;;;;4125343;28;20280;-60
2021/11/30 09:43:14;;;;;;;5.60;3.60;;;4.50;99.90;;;;;;4124540;28;20660;-61
2021/11/30 09:45:16;;;;;;;7.83;4.37;;;4.50;99.90;;;;;;4125107;28;20272;-61
2021/11/30 09:47:17;;;;;;;8.97;4.20;;;4.50;99.90;;;;;;4125693;28;20272;-60
2021/11/30 09:49:19;;;;;;;6.60;4.07;;;4.50;99.90;;;;;;4125131;28;20299;-61
2021/11/30 09:51:20;;;;;;;7.77;4.07;;;4.60;99.90;;;;;;4123901;28;20284;-64
2021/11/30 09:53:22;;;;;;;7.30;3.87;;;4.60;99.90;;;;;;4123968;28;20283;-61
2021/11/30 09:55:24;;;;;;;8.20;4.07;;;4.50;99.90;;;;;;4126163;28;20815;-60
2021/11/30 09:57:26;;;;;;;10.40;5.80;;;4.40;99.90;;;;;;4123912;28;20302;-61
2021/11/30 09:59:27;;;;;;;8.93;4.90;;;4.30;99.90;;;;;;4126203;28;20276;-62
2021/11/30 10:01:28;;;;;;;10.83;5.13;;;4.20;99.90;;;;;;4124377;28;20346;-63
2021/11/30 10:03:30;;;;;;;11.80;5.73;;;4.10;99.90;;;;;;4124764;28;20322;-65
2021/11/30 10:05:32;;;;;;;20.10;7.87;;;4.10;99.90;;;;;;4124407;28;20324;-60
2021/11/30 10:07:42;;;;;;;24.77;9.00;;;4.00;99.90;;;;;;4125283;28;20690;-64
2021/11/30 10:09:44;;;;;;;52.00;16.45;;;4.00;99.90;;;;;;4123867;28;20260;-66
2021/11/30 10:11:55;;;;;;;56.07;17.93;;;4.00;99.90;;;;;;4125425;28;20034;-62
2021/11/30 10:14:16;;;;;;;20.90;7.60;;;4.00;99.90;;;;;;4122260;28;20767;-60
2021/11/30 10:16:17;;;;;;;15.18;7.65;;;4.00;99.90;;;;;;4125298;28;20338;-62
2021/11/30 10:18:30;;;;;;;36.43;13.10;;;4.00;99.90;;;;;;4124225;28;20895;-60
2021/11/30 10:20:31;;;;;;;7.17;3.60;;;4.10;99.90;;;;;;4125378;28;20280;-63
2021/11/30 10:22:33;;;;;;;20.10;7.77;;;4.10;99.90;;;;;;4123991;28;20276;-61
2021/11/30 10:24:35;;;;;;;25.00;10.20;;;4.10;99.90;;;;;;4123830;28;20280;-60
2021/11/30 10:26:40;;;;;;;18.70;8.97;;;4.20;99.90;;;;;;4123534;28;20601;-62
2021/11/30 10:28:42;;;;;;;22.00;8.93;;;4.20;99.90;;;;;;4124691;28;20268;-61
2021/11/30 10:30:49;;;;;;;20.07;9.10;;;4.20;99.90;;;;;;4122604;28;20330;-63
2021/11/30 10:32:52;;;;;;;21.23;9.23;;;4.20;99.90;;;;;;4124155;28;20350;-64
2021/11/30 10:35:01;;;;;;;19.43;7.33;;;4.10;99.90;;;;;;4124367;28;20318;-63
2021/11/30 10:37:05;;;;;;;25.03;10.27;;;4.00;99.90;;;;;;4123748;28;20334;-62
2021/11/30 10:39:17;;;;;;;30.93;11.83;;;3.90;99.90;;;;;;4124263;28;21046;-64
2021/11/30 10:41:25;;;;;;;18.73;7.27;;;3.70;99.90;;;;;;4124187;28;20755;-64
2021/11/30 10:43:26;;;;;;;5.37;3.50;;;3.60;99.90;;;;;;4124193;28;20268;-65
2021/11/30 10:45:30;;;;;;;4.80;3.00;;;3.50;99.90;;;;;;4138704;28;20833;-63
2021/11/30 10:47:36;;;;;;;26.17;8.33;;;3.40;99.90;;;;;;4139433;28;20283;-60
2021/11/30 10:49:54;;;;;;;52.97;15.10;;;3.30;99.90;;;;;;4139571;28;20821;-64
2021/11/30 10:51:55;;;;;;;36.37;11.47;;;3.30;99.90;;;;;;4140619;28;20259;-62
2021/11/30 10:53:59;;;;;;;45.37;14.23;;;3.30;99.90;;;;;;4139036;28;20263;-61